Time;durP1;ratioP1;P1;durP2;ratioP2;P2;SDS_P1;SDS_P2;PMS_P1;PMS_P2;Temp;Humidity;BMP_temperature;BMP_pressure;BME280_temperature;BME280_humidity;BME280_pressure;Samples;Min_cycle;Max_cycle;Signal;HPM_P1;HPM_P2
2022/01/29 03:15:26;;;;;;;10.67;8.50;;;;;;;;;;6232799;22;20320;-82
2022/01/29 03:17:53;;;;;;;12.63;9.20;;;;;;;;;;6283231;22;20233;-83
2022/01/29 03:20:20;;;;;;;10.77;8.23;;;;;;;;;;6282216;22;20248;-82
2022/01/29 03:22:47;;;;;;;10.40;9.03;;;;;;;;;;6281284;22;20172;-83
2022/01/29 03:25:16;;;;;;;10.47;8.47;;;;;;;;;;6281538;22;20192;-81
2022/01/29 03:27:43;;;;;;;11.27;8.10;;;;;;;;;;6280807;22;20223;-83
2022/01/29 03:30:11;;;;;;;11.40;8.80;;;;;;;;;;6280701;22;20168;-84
2022/01/29 03:32:40;;;;;;;10.43;7.97;;;;;;;;;;6280179;22;20168;-84
2022/01/29 03:35:07;;;;;;;11.80;8.00;;;;;;;;;;6280105;22;20191;-83
2022/01/29 03:37:35;;;;;;;11.43;8.67;;;;;;;;;;6278809;22;20222;-83
2022/01/29 03:40:03;;;;;;;11.43;8.47;;;;;;;;;;6279380;22;20188;-83
2022/01/29 03:42:35;;;;;;;10.97;8.20;;;;;;;;;;6279344;22;20172;-84
2022/01/29 03:45:02;;;;;;;11.77;9.03;;;;;;;;;;6279033;22;20192;-83
2022/01/29 03:47:30;;;;;;;11.40;8.27;;;;;;;;;;6278757;22;20171;-82
2022/01/29 03:49:58;;;;;;;9.60;7.70;;;;;;;;;;6279809;22;20183;-83
2022/01/29 03:52:26;;;;;;;10.23;8.00;;;;;;;;;;6279270;22;20176;-83
2022/01/29 03:54:53;;;;;;;9.40;7.77;;;;;;;;;;6278994;22;20188;-83
2022/01/29 03:57:20;;;;;;;11.03;8.53;;;;;;;;;;6279317;22;20172;-83
2022/01/29 03:59:47;;;;;;;10.00;8.00;;;;;;;;;;6295770;22;20164;-82
2022/01/29 04:02:15;;;;;;;10.63;8.83;;;;;;;;;;6291904;22;20188;-84
2022/01/29 04:04:42;;;;;;;10.27;8.27;;;;;;;;;;6300061;22;20168;-84
2022/01/29 04:07:12;;;;;;;10.93;8.57;;;;;;;;;;6290107;22;20225;-83
2022/01/29 04:09:46;;;;;;;10.53;8.77;;;;;;;;;;6298019;22;20160;-83
2022/01/29 04:12:14;;;;;;;9.77;8.03;;;;;;;;;;6301202;22;20159;-81
2022/01/29 04:14:41;;;;;;;10.03;8.10;;;;;;;;;;6300716;22;20156;-82
2022/01/29 04:17:10;;;;;;;9.97;7.60;;;;;;;;;;6297642;22;20156;-84
2022/01/29 04:19:37;;;;;;;10.40;8.07;;;;;;;;;;6290178;22;20182;-83
2022/01/29 04:22:05;;;;;;;9.03;7.60;;;;;;;;;;6289882;22;20175;-84
2022/01/29 04:24:34;;;;;;;10.70;8.13;;;;;;;;;;6288339;22;20168;-83
2022/01/29 04:27:03;;;;;;;9.57;7.87;;;;;;;;;;6286439;22;20195;-82
2022/01/29 04:29:40;;;;;;;10.67;8.57;;;;;;;;;;6287102;22;20176;-84
2022/01/29 04:32:12;;;;;;;11.60;9.43;;;;;;;;;;6287395;22;20213;-81
2022/01/29 04:34:40;;;;;;;11.30;8.40;;;;;;;;;;6287143;22;20168;-83
2022/01/29 04:37:07;;;;;;;12.00;9.43;;;;;;;;;;6287089;22;20198;-84
2022/01/29 04:39:35;;;;;;;11.13;9.33;;;;;;;;;;6287089;22;20168;-83
2022/01/29 04:42:03;;;;;;;12.70;9.30;;;;;;;;;;6287088;22;20237;-83
2022/01/29 04:44:30;;;;;;;11.77;9.10;;;;;;;;;;6287689;22;20171;-82
2022/01/29 04:46:57;;;;;;;9.97;8.93;;;;;;;;;;6284632;22;20199;-84
2022/01/29 04:49:25;;;;;;;11.93;8.80;;;;;;;;;;6286017;22;20188;-84
2022/01/29 04:51:52;;;;;;;12.07;9.60;;;;;;;;;;6287160;22;20168;-81
2022/01/29 04:54:19;;;;;;;12.67;9.63;;;;;;;;;;6287175;22;20226;-84
2022/01/29 04:56:48;;;;;;;11.10;9.20;;;;;;;;;;6287174;22;20192;-82
2022/01/29 04:59:15;;;;;;;14.20;9.53;;;;;;;;;;6286733;22;20195;-84
2022/01/29 05:01:42;;;;;;;14.57;9.00;;;;;;;;;;6287435;22;20194;-82
2022/01/29 05:04:10;;;;;;;11.73;9.90;;;;;;;;;;6287335;22;20172;-84
2022/01/29 05:06:37;;;;;;;10.73;8.97;;;;;;;;;;6286169;22;20241;-82
2022/01/29 05:09:07;;;;;;;12.77;9.97;;;;;;;;;;6287021;22;20234;-83
2022/01/29 05:11:34;;;;;;;12.90;8.97;;;;;;;;;;6287523;22;20187;-84
2022/01/29 05:14:06;;;;;;;12.53;9.67;;;;;;;;;;6288992;22;20301;-83
2022/01/29 05:16:56;;;;;;;10.73;8.87;;;;;;;;;;6284810;22;20204;-84
2022/01/29 05:27:46;;;;;;;12.23;9.87;;;;;;;;;;6282039;22;20222;-83
2022/01/29 05:30:15;;;;;;;13.93;10.70;;;;;;;;;;6282465;22;20246;-83
2022/01/29 05:32:42;;;;;;;12.10;10.80;;;;;;;;;;6283430;22;20172;-81
2022/01/29 05:35:10;;;;;;;15.03;11.83;;;;;;;;;;6284992;22;20188;-83
2022/01/29 05:37:37;;;;;;;14.37;12.03;;;;;;;;;;6285650;22;20168;-83
2022/01/29 05:40:04;;;;;;;13.87;11.57;;;;;;;;;;6285259;22;20172;-83
2022/01/29 05:42:32;;;;;;;15.27;12.83;;;;;;;;;;6285221;22;20172;-83
2022/01/29 05:44:59;;;;;;;17.00;12.67;;;;;;;;;;6285132;22;20221;-83
2022/01/29 05:47:28;;;;;;;15.13;12.70;;;;;;;;;;6284208;22;20179;-84
2022/01/29 05:49:55;;;;;;;17.33;13.70;;;;;;;;;;6285036;22;20261;-84
2022/01/29 05:52:22;;;;;;;19.43;14.07;;;;;;;;;;6285742;22;20170;-84
2022/01/29 05:54:51;;;;;;;18.93;14.00;;;;;;;;;;6286604;22;20191;-84
2022/01/29 05:57:18;;;;;;;19.30;14.10;;;;;;;;;;6286771;22;20258;-83
2022/01/29 05:59:45;;;;;;;18.93;13.87;;;;;;;;;;6291015;22;20182;-84
2022/01/29 06:02:13;;;;;;;17.83;13.47;;;;;;;;;;6290114;22;20188;-83
2022/01/29 06:04:42;;;;;;;18.00;14.13;;;;;;;;;;6286731;22;20180;-84
2022/01/29 06:07:09;;;;;;;19.10;14.50;;;;;;;;;;6285155;22;20175;-83
2022/01/29 06:09:36;;;;;;;18.43;13.60;;;;;;;;;;6287697;22;20168;-82
2022/01/29 06:12:03;;;;;;;19.43;13.97;;;;;;;;;;6290126;22;20164;-82
2022/01/29 06:14:30;;;;;;;15.73;13.47;;;;;;;;;;6288524;22;20171;-82
2022/01/29 06:16:58;;;;;;;18.80;14.37;;;;;;;;;;6287915;22;20164;-82
2022/01/29 06:19:25;;;;;;;17.43;13.47;;;;;;;;;;6288756;22;20179;-82
2022/01/29 06:21:54;;;;;;;18.27;14.23;;;;;;;;;;6289626;22;20188;-82
2022/01/29 06:24:22;;;;;;;16.93;13.83;;;;;;;;;;6289256;22;20176;-83
2022/01/29 06:26:49;;;;;;;17.97;12.93;;;;;;;;;;6289050;22;20195;-83
2022/01/29 06:29:16;;;;;;;19.87;14.23;;;;;;;;;;6289845;22;20199;-82
2022/01/29 06:31:44;;;;;;;19.57;14.53;;;;;;;;;;6289189;22;20179;-82
2022/01/29 06:34:11;;;;;;;17.03;13.67;;;;;;;;;;6287698;22;20172;-81
2022/01/29 06:36:38;;;;;;;19.57;15.13;;;;;;;;;;6285788;22;20222;-79
2022/01/29 06:39:07;;;;;;;18.33;13.37;;;;;;;;;;6288911;22;20172;-82
2022/01/29 06:41:34;;;;;;;19.40;14.83;;;;;;;;;;6287123;22;20184;-82
2022/01/29 06:44:02;;;;;;;19.97;14.27;;;;;;;;;;6288211;22;20198;-82
2022/01/29 06:46:29;;;;;;;19.87;14.23;;;;;;;;;;6289196;22;20196;-81
2022/01/29 06:48:56;;;;;;;17.37;13.60;;;;;;;;;;6291050;22;20172;-82
2022/01/29 06:51:23;;;;;;;18.47;13.37;;;;;;;;;;6292018;22;20226;-82
2022/01/29 06:53:51;;;;;;;18.27;12.97;;;;;;;;;;6292837;22;20218;-83
2022/01/29 06:56:19;;;;;;;18.63;14.07;;;;;;;;;;6290997;22;20222;-80
2022/01/29 06:58:47;;;;;;;16.07;13.03;;;;;;;;;;6293784;22;20202;-83
2022/01/29 07:01:14;;;;;;;19.27;13.43;;;;;;;;;;6292609;22;20188;-82
2022/01/29 07:03:41;;;;;;;17.60;13.23;;;;;;;;;;6289949;22;20176;-81
2022/01/29 07:06:08;;;;;;;14.40;12.07;;;;;;;;;;6282276;22;20196;-82
2022/01/29 07:08:38;;;;;;;16.27;12.97;;;;;;;;;;6288429;22;20222;-82
2022/01/29 07:11:05;;;;;;;14.37;11.67;;;;;;;;;;6279271;22;20172;-81
2022/01/29 07:13:35;;;;;;;15.27;11.87;;;;;;;;;;6278421;22;20206;-82
2022/01/29 07:16:02;;;;;;;15.17;12.30;;;;;;;;;;6281990;22;20214;-83
2022/01/29 07:18:29;;;;;;;14.37;11.23;;;;;;;;;;6285594;22;20215;-83
2022/01/29 07:20:56;;;;;;;15.50;11.90;;;;;;;;;;6287036;22;20184;-83
2022/01/29 07:23:24;;;;;;;18.87;12.30;;;;;;;;;;6287290;22;20172;-82
2022/01/29 07:25:51;;;;;;;14.93;12.43;;;;;;;;;;6287259;22;20192;-81
2022/01/29 07:28:18;;;;;;;14.37;11.97;;;;;;;;;;6289971;22;20190;-81
2022/01/29 07:30:47;;;;;;;13.67;10.63;;;;;;;;;;6283298;22;20172;-82
2022/01/29 07:33:14;;;;;;;14.67;11.10;;;;;;;;;;6281244;22;20171;-82
2022/01/29 07:35:42;;;;;;;14.50;11.60;;;;;;;;;;6282089;22;20196;-80
2022/01/29 07:38:12;;;;;;;12.53;10.20;;;;;;;;;;6282009;22;20168;-83
2022/01/29 07:40:40;;;;;;;11.57;9.67;;;;;;;;;;6283391;22;20178;-79
2022/01/29 07:43:07;;;;;;;12.73;9.50;;;;;;;;;;6285305;22;20229;-82
2022/01/29 07:45:34;;;;;;;11.00;9.23;;;;;;;;;;6285738;22;20196;-81
2022/01/29 07:48:03;;;;;;;9.27;7.53;;;;;;;;;;6286134;22;20202;-82
2022/01/29 07:50:30;;;;;;;7.80;7.03;;;;;;;;;;6285238;22;20222;-81
2022/01/29 07:52:59;;;;;;;8.53;6.97;;;;;;;;;;6285507;22;20175;-79
2022/01/29 07:55:26;;;;;;;8.63;6.03;;;;;;;;;;6285906;22;20203;-80
2022/01/29 07:57:53;;;;;;;6.87;6.10;;;;;;;;;;6285072;22;20183;-79
2022/01/29 08:00:21;;;;;;;8.03;6.23;;;;;;;;;;6286693;22;20178;-79
2022/01/29 08:02:48;;;;;;;7.00;5.77;;;;;;;;;;6285818;22;20202;-79
2022/01/29 08:05:17;;;;;;;6.20;5.57;;;;;;;;;;6285812;22;20279;-81
2022/01/29 08:07:44;;;;;;;6.17;5.10;;;;;;;;;;6286066;22;20168;-81
2022/01/29 08:10:11;;;;;;;6.47;4.53;;;;;;;;;;6285405;22;20168;-82
2022/01/29 08:12:39;;;;;;;4.97;3.80;;;;;;;;;;6284845;22;20188;-82
2022/01/29 08:15:07;;;;;;;4.87;4.07;;;;;;;;;;6285508;22;20200;-83
2022/01/29 08:17:34;;;;;;;5.03;3.77;;;;;;;;;;6284567;22;20636;-84
2022/01/29 08:20:01;;;;;;;5.43;3.90;;;;;;;;;;6287333;22;20168;-82
2022/01/29 08:22:30;;;;;;;4.13;3.60;;;;;;;;;;6285293;22;20191;-80
2022/01/29 08:24:57;;;;;;;5.00;3.60;;;;;;;;;;6286463;22;20539;-82
2022/01/29 08:27:25;;;;;;;3.70;3.40;;;;;;;;;;6284161;22;20191;-79
2022/01/29 08:29:52;;;;;;;5.10;3.80;;;;;;;;;;6285018;22;20172;-80
2022/01/29 08:32:19;;;;;;;4.47;3.57;;;;;;;;;;6285302;22;20558;-82
2022/01/29 08:34:47;;;;;;;3.50;3.10;;;;;;;;;;6285599;22;20246;-81
2022/01/29 08:37:14;;;;;;;4.90;3.63;;;;;;;;;;6285810;22;20191;-81
2022/01/29 08:39:45;;;;;;;3.50;3.20;;;;;;;;;;6293952;22;20172;-83
2022/01/29 08:42:13;;;;;;;3.83;3.23;;;;;;;;;;6288407;22;20186;-82
2022/01/29 08:44:40;;;;;;;4.10;3.50;;;;;;;;;;6290136;22;20183;-80
2022/01/29 08:47:08;;;;;;;3.90;3.50;;;;;;;;;;6291751;22;20199;-83
2022/01/29 08:49:35;;;;;;;4.30;3.37;;;;;;;;;;6291230;22;20168;-82
2022/01/29 08:52:03;;;;;;;3.80;3.33;;;;;;;;;;6284738;22;20168;-78
2022/01/29 08:54:30;;;;;;;4.80;3.63;;;;;;;;;;6280609;22;20176;-81
2022/01/29 08:56:58;;;;;;;3.87;3.43;;;;;;;;;;6282621;22;20226;-82
2022/01/29 08:59:26;;;;;;;4.57;3.40;;;;;;;;;;6284825;22;20225;-79
2022/01/29 09:01:53;;;;;;;3.63;3.30;;;;;;;;;;6284776;22;20184;-79
2022/01/29 09:04:20;;;;;;;5.97;3.60;;;;;;;;;;6284687;22;20164;-83
2022/01/29 09:06:48;;;;;;;5.00;4.10;;;;;;;;;;6282813;22;20188;-81
2022/01/29 09:09:20;;;;;;;3.70;3.40;;;;;;;;;;6285123;22;20183;-81
2022/01/29 09:11:47;;;;;;;4.37;3.57;;;;;;;;;;6284817;22;20172;-78
2022/01/29 09:14:16;;;;;;;4.90;3.90;;;;;;;;;;6287562;22;20168;-83
2022/01/29 09:16:43;;;;;;;3.83;3.23;;;;;;;;;;6286769;22;20249;-80
2022/01/29 09:19:11;;;;;;;6.60;3.57;;;;;;;;;;6285517;22;20187;-81
2022/01/29 09:21:38;;;;;;;3.90;3.27;;;;;;;;;;6283379;22;20196;-82
2022/01/29 09:24:06;;;;;;;4.57;3.57;;;;;;;;;;6280752;22;20191;-83
2022/01/29 09:26:33;;;;;;;4.10;3.50;;;;;;;;;;6277243;22;20192;-82
2022/01/29 09:29:01;;;;;;;3.93;3.53;;;;;;;;;;6280460;22;20172;-81
2022/01/29 09:31:29;;;;;;;3.77;3.47;;;;;;;;;;6280634;22;20341;-79
2022/01/29 09:33:57;;;;;;;4.30;3.50;;;;;;;;;;6281478;22;20168;-83
2022/01/29 09:36:24;;;;;;;4.33;3.83;;;;;;;;;;6279747;22;20257;-80
2022/01/29 09:38:51;;;;;;;6.57;5.00;;;;;;;;;;6281704;22;20168;-83
2022/01/29 09:41:20;;;;;;;5.03;4.10;;;;;;;;;;6282186;22;20210;-81
2022/01/29 09:43:47;;;;;;;4.43;3.93;;;;;;;;;;6287295;22;20202;-81
2022/01/29 09:46:16;;;;;;;5.30;4.10;;;;;;;;;;6286243;22;20246;-81
2022/01/29 09:48:45;;;;;;;4.43;3.80;;;;;;;;;;6288337;22;20223;-81
2022/01/29 09:51:13;;;;;;;4.80;4.30;;;;;;;;;;6288812;22;20172;-84
2022/01/29 09:53:42;;;;;;;4.60;3.73;;;;;;;;;;6291592;22;20176;-84
2022/01/29 09:56:10;;;;;;;4.27;3.87;;;;;;;;;;6290695;22;20192;-80
2022/01/29 09:58:37;;;;;;;7.17;4.57;;;;;;;;;;6291425;22;20172;-82
2022/01/29 10:01:05;;;;;;;4.73;4.13;;;;;;;;;;6289932;22;20172;-86
2022/01/29 10:03:32;;;;;;;5.10;3.93;;;;;;;;;;6280443;22;20246;-82
2022/01/29 10:06:01;;;;;;;4.03;3.63;;;;;;;;;;6277672;22;20206;-82
2022/01/29 10:08:29;;;;;;;5.40;4.20;;;;;;;;;;6285219;22;20180;-84
2022/01/29 10:10:58;;;;;;;5.77;4.17;;;;;;;;;;6278554;22;20175;-82
2022/01/29 10:13:27;;;;;;;4.40;3.93;;;;;;;;;;6276776;22;20195;-80
2022/01/29 10:16:04;;;;;;;5.13;4.03;;;;;;;;;;6275898;22;20218;-80
2022/01/29 10:18:32;;;;;;;4.47;3.80;;;;;;;;;;6277219;22;20194;-82
2022/01/29 10:21:12;;;;;;;4.87;4.00;;;;;;;;;;6279943;22;20180;-81
2022/01/29 10:23:40;;;;;;;5.23;3.60;;;;;;;;;;6279612;22;20196;-78
2022/01/29 10:26:09;;;;;;;3.43;3.10;;;;;;;;;;6279467;22;20279;-82
2022/01/29 10:28:37;;;;;;;4.43;3.50;;;;;;;;;;6280077;22;20168;-78
2022/01/29 10:31:05;;;;;;;4.13;3.73;;;;;;;;;;6280689;22;20172;-83
2022/01/29 10:33:33;;;;;;;4.33;3.10;;;;;;;;;;6280984;22;20172;-82
2022/01/29 10:36:01;;;;;;;3.63;3.27;;;;;;;;;;6280074;22;20188;-82
2022/01/29 10:38:31;;;;;;;3.40;3.10;;;;;;;;;;6281950;22;20168;-85
2022/01/29 10:41:19;;;;;;;4.70;3.50;;;;;;;;;;6283525;22;20202;-84
2022/01/29 10:43:57;;;;;;;3.43;2.90;;;;;;;;;;6285284;22;20184;-84
2022/01/29 10:46:28;;;;;;;5.33;3.27;;;;;;;;;;6289458;22;20257;-83
2022/01/29 10:48:55;;;;;;;4.07;3.40;;;;;;;;;;6289816;22;20229;-85
2022/01/29 10:51:22;;;;;;;5.33;4.10;;;;;;;;;;6290419;22;20226;-84
2022/01/29 10:53:52;;;;;;;4.47;3.40;;;;;;;;;;6287931;22;20242;-83
2022/01/29 10:56:26;;;;;;;4.33;3.60;;;;;;;;;;6281624;22;20191;-80
2022/01/29 10:58:55;;;;;;;4.20;3.37;;;;;;;;;;6281531;22;20489;-79
2022/01/29 11:01:29;;;;;;;3.67;3.37;;;;;;;;;;6282950;22;20198;-81
2022/01/29 11:04:09;;;;;;;5.07;3.90;;;;;;;;;;6281787;22;20232;-82
2022/01/29 11:06:50;;;;;;;4.63;3.73;;;;;;;;;;6281596;22;20218;-81
2022/01/29 11:09:22;;;;;;;6.00;3.17;;;;;;;;;;6282559;22;20167;-79
2022/01/29 11:11:50;;;;;;;4.43;3.23;;;;;;;;;;6282378;22;20251;-81
2022/01/29 11:14:21;;;;;;;4.30;3.23;;;;;;;;;;6281083;22;20176;-78
2022/01/29 11:16:49;;;;;;;3.87;3.37;;;;;;;;;;6278367;22;20200;-80
2022/01/29 11:19:18;;;;;;;4.30;3.30;;;;;;;;;;6278992;22;20184;-81
2022/01/29 11:21:47;;;;;;;3.30;2.80;;;;;;;;;;6279145;22;20214;-79
2022/01/29 11:24:29;;;;;;;3.70;2.37;;;;;;;;;;6278683;22;20230;-80
2022/01/29 11:27:27;;;;;;;;;;;;;;;;;;;;;
2022/01/29 11:30:24;;;;;;;4.40;2.90;;;;;;;;;;6272595;22;20251;-78
2022/01/29 11:33:18;;;;;;;3.33;3.03;;;;;;;;;;6273664;22;20175;-82
2022/01/29 11:52:33;;;;;;;3.23;2.60;;;;;;;;;;5983311;24;20300;-80
2022/01/29 11:55:45;;;;;;;2.97;2.40;;;;;;;;;;5984502;24;20218;-83
2022/01/29 12:01:46;;;;;;;3.30;2.60;;;;;;;;;;5972198;24;20185;-80
2022/01/29 12:04:15;;;;;;;3.30;2.30;;;;;;;;;;5987535;24;20225;-82
2022/01/29 12:06:58;;;;;;;2.60;2.40;;;;;;;;;;5986644;24;20194;-82
2022/01/29 12:09:38;;;;;;;2.30;2.10;;;;;;;;;;5989870;24;20600;-82
2022/01/29 12:12:21;;;;;;;2.73;2.00;;;;;;;;;;5999790;24;20167;-82
2022/01/29 12:34:58;;;;;;;1.57;1.47;;;;;;;;;;6236303;22;20207;-88
2022/01/29 12:37:25;;;;;;;1.63;1.53;;;;;;;;;;6303044;22;20158;-92
2022/01/29 12:40:19;;;;;;;1.63;1.53;;;;;;;;;;6303032;22;20156;-89
2022/01/29 13:21:59;;;;;;;2.67;2.27;;;;;;;;;;6120909;23;20163;-89
2022/01/29 13:24:32;;;;;;;2.37;2.17;;;;;;;;;;6120627;23;20184;-87
2022/01/29 13:27:02;;;;;;;3.33;2.50;;;;;;;;;;6185444;23;20189;-86
2022/01/29 13:29:35;;;;;;;3.63;2.40;;;;;;;;;;6208847;23;20162;-87
2022/01/29 13:32:02;;;;;;;2.30;2.10;;;;;;;;;;6209107;23;20170;-84
2022/01/29 13:34:31;;;;;;;2.93;2.13;;;;;;;;;;6208767;23;20162;-85
2022/01/29 13:37:00;;;;;;;2.53;2.33;;;;;;;;;;6202064;23;20185;-84
2022/01/29 13:39:28;;;;;;;2.43;2.00;;;;;;;;;;6189360;23;20177;-85
2022/01/29 13:42:10;;;;;;;4.13;2.37;;;;;;;;;;6187465;23;20185;-83
2022/01/29 13:44:38;;;;;;;3.00;2.30;;;;;;;;;;6184208;23;20244;-79
2022/01/29 13:47:09;;;;;;;1.97;1.80;;;;;;;;;;6184234;23;20228;-86
2022/01/29 13:49:44;;;;;;;2.20;2.00;;;;;;;;;;6182757;23;20178;-87
2022/01/29 13:52:18;;;;;;;2.30;1.80;;;;;;;;;;6182544;23;20668;-87
2022/01/29 13:54:45;;;;;;;2.67;2.00;;;;;;;;;;6203415;22;20192;-88
2022/01/29 13:57:12;;;;;;;3.33;1.87;;;;;;;;;;6276366;22;20183;-86
2022/01/29 13:59:42;;;;;;;2.40;2.20;;;;;;;;;;6275953;22;20196;-87
2022/01/29 14:02:11;;;;;;;3.13;2.37;;;;;;;;;;6278231;22;20168;-83
2022/01/29 14:04:40;;;;;;;3.03;2.10;;;;;;;;;;6280024;22;20216;-84
2022/01/29 14:07:09;;;;;;;2.37;1.90;;;;;;;;;;6280429;22;20172;-81
2022/01/29 14:09:43;;;;;;;1.80;1.70;;;;;;;;;;6281764;22;20242;-87
2022/01/29 14:12:12;;;;;;;2.43;2.10;;;;;;;;;;6283749;22;20211;-85
2022/01/29 14:14:41;;;;;;;1.90;1.80;;;;;;;;;;6286410;22;20179;-84
2022/01/29 14:17:18;;;;;;;1.80;1.53;;;;;;;;;;6286365;22;20176;-84
2022/01/29 14:19:47;;;;;;;1.73;1.50;;;;;;;;;;6281156;22;20550;-84
2022/01/29 14:22:15;;;;;;;1.93;1.70;;;;;;;;;;6279755;22;20168;-85
2022/01/29 14:24:44;;;;;;;1.83;1.70;;;;;;;;;;6284411;22;20249;-81
2022/01/29 14:27:12;;;;;;;1.60;1.50;;;;;;;;;;6286382;22;20191;-83
2022/01/29 14:29:40;;;;;;;1.50;1.40;;;;;;;;;;6288124;22;20172;-81
2022/01/29 14:32:08;;;;;;;3.30;2.40;;;;;;;;;;6285896;22;20172;-83
2022/01/29 14:34:35;;;;;;;2.17;1.90;;;;;;;;;;6286539;22;20190;-83
2022/01/29 14:37:03;;;;;;;2.40;1.40;;;;;;;;;;6285947;22;20202;-82
2022/01/29 14:39:31;;;;;;;1.50;1.33;;;;;;;;;;6286805;22;20179;-83
2022/01/29 14:42:02;;;;;;;1.50;1.40;;;;;;;;;;6286104;22;20176;-82
2022/01/29 14:44:30;;;;;;;2.37;1.70;;;;;;;;;;6284988;22;20192;-83
2022/01/29 14:46:57;;;;;;;1.60;1.50;;;;;;;;;;6288532;22;20176;-83
2022/01/29 14:49:25;;;;;;;2.73;1.53;;;;;;;;;;6290279;22;20175;-82
2022/01/29 14:51:53;;;;;;;1.43;1.33;;;;;;;;;;6286611;22;20172;-82
2022/01/29 14:54:20;;;;;;;3.40;1.90;;;;;;;;;;6287781;22;20180;-82
2022/01/29 14:56:47;;;;;;;1.50;1.40;;;;;;;;;;6285545;22;20192;-80
2022/01/29 14:59:16;;;;;;;1.63;1.53;;;;;;;;;;6288711;22;20175;-83
2022/01/29 15:01:44;;;;;;;1.93;1.50;;;;;;;;;;6286944;22;20172;-81
2022/01/29 15:04:11;;;;;;;2.27;1.60;;;;;;;;;;6284525;22;20218;-82
2022/01/29 15:06:39;;;;;;;1.43;1.33;;;;;;;;;;6283771;22;20210;-83
2022/01/29 15:09:06;;;;;;;1.73;1.53;;;;;;;;;;6283792;22;20179;-82
2022/01/29 15:11:35;;;;;;;4.43;1.60;;;;;;;;;;6281917;22;20226;-79
2022/01/29 15:14:02;;;;;;;1.77;1.40;;;;;;;;;;6283174;22;20188;-81
2022/01/29 15:16:31;;;;;;;3.10;1.40;;;;;;;;;;6279333;22;20243;-86
2022/01/29 15:19:02;;;;;;;1.43;1.33;;;;;;;;;;6277606;22;20241;-86
2022/01/29 15:21:37;;;;;;;1.50;1.40;;;;;;;;;;6278608;22;20251;-86
2022/01/29 15:24:04;;;;;;;1.83;1.70;;;;;;;;;;6279665;22;20187;-85
2022/01/29 15:32:30;;;;;;;2.00;1.80;;;;;;;;;;6269911;22;20194;-88
2022/01/29 15:35:24;;;;;;;1.83;1.70;;;;;;;;;;6275976;22;20218;-88
2022/01/29 15:37:56;;;;;;;1.87;1.77;;;;;;;;;;6274834;22;20259;-89
2022/01/29 15:40:28;;;;;;;2.50;2.30;;;;;;;;;;6276800;22;20183;-88
2022/01/29 15:43:03;;;;;;;2.20;2.00;;;;;;;;;;6276946;22;20168;-88
2022/01/29 15:45:36;;;;;;;2.60;1.87;;;;;;;;;;6277464;22;20199;-89
2022/01/29 15:48:19;;;;;;;3.37;2.80;;;;;;;;;;6275579;22;20164;-88
2022/01/29 15:50:55;;;;;;;2.60;2.40;;;;;;;;;;6276471;22;20168;-88
2022/01/29 15:53:28;;;;;;;2.43;2.23;;;;;;;;;;6276059;22;20190;-88
2022/01/29 15:56:13;;;;;;;2.20;2.00;;;;;;;;;;6276737;22;20199;-88
2022/01/29 15:58:54;;;;;;;2.53;1.90;;;;;;;;;;6276691;22;20195;-88
2022/01/29 16:01:34;;;;;;;2.73;2.17;;;;;;;;;;6279805;22;20238;-88
2022/01/29 16:09:46;;;;;;;2.27;2.07;;;;;;;;;;6265314;22;20271;-87
2022/01/29 16:12:50;;;;;;;2.27;2.07;;;;;;;;;;6276063;22;20167;-89
2022/01/29 16:15:24;;;;;;;2.07;1.90;;;;;;;;;;6267832;22;20265;-89
2022/01/29 16:18:04;;;;;;;2.10;1.90;;;;;;;;;;6275412;22;20239;-88
2022/01/29 16:20:49;;;;;;;1.90;1.70;;;;;;;;;;6277066;22;20180;-85
2022/01/29 16:23:18;;;;;;;2.30;2.10;;;;;;;;;;6277108;22;20164;-85
2022/01/29 16:25:47;;;;;;;1.90;1.80;;;;;;;;;;6275887;22;20199;-85
2022/01/29 16:28:20;;;;;;;2.23;1.67;;;;;;;;;;6276717;22;20179;-84
2022/01/29 16:31:00;;;;;;;2.17;1.97;;;;;;;;;;6278310;22;20167;-85
2022/01/29 16:33:28;;;;;;;1.83;1.73;;;;;;;;;;6284582;22;20206;-84
2022/01/29 16:41:49;;;;;;;2.30;2.07;;;;;;;;;;6266168;22;20175;-85
2022/01/29 16:47:01;;;;;;;2.10;1.90;;;;;;;;;;6281148;22;20207;-85
2022/01/29 16:55:15;;;;;;;2.33;2.10;;;;;;;;;;6273875;22;20176;-85
2022/01/29 16:57:54;;;;;;;2.03;1.90;;;;;;;;;;6260443;22;20227;-86
2022/01/29 17:00:42;;;;;;;2.40;2.20;;;;;;;;;;6275142;22;20175;-86
2022/01/29 17:03:12;;;;;;;3.90;2.30;;;;;;;;;;6275951;22;20190;-86
2022/01/29 17:05:45;;;;;;;2.17;1.97;;;;;;;;;;6274303;22;20192;-85
2022/01/29 17:08:33;;;;;;;2.77;1.93;;;;;;;;;;6275815;22;20176;-85
2022/01/29 17:11:16;;;;;;;2.40;2.20;;;;;;;;;;6267596;22;20174;-86
2022/01/29 17:13:54;;;;;;;2.30;2.10;;;;;;;;;;6271917;22;20186;-85
2022/01/29 17:21:53;;;;;;;2.50;2.30;;;;;;;;;;6180913;23;20177;-85
2022/01/29 17:24:25;;;;;;;2.33;2.13;;;;;;;;;;6215604;22;20265;-86
2022/01/29 17:26:55;;;;;;;2.67;2.47;;;;;;;;;;6274485;22;20188;-86
2022/01/29 17:29:34;;;;;;;2.57;2.37;;;;;;;;;;6274711;22;20202;-86
2022/01/29 17:32:13;;;;;;;2.50;1.73;;;;;;;;;;6274600;22;20218;-86
2022/01/29 17:34:48;;;;;;;3.20;1.80;;;;;;;;;;6275351;22;20174;-86
2022/01/29 17:37:19;;;;;;;1.73;1.60;;;;;;;;;;6273594;22;20262;-86
2022/01/29 17:39:49;;;;;;;1.60;1.50;;;;;;;;;;6274196;22;20233;-86
2022/01/29 17:42:21;;;;;;;2.30;1.80;;;;;;;;;;6274987;22;20156;-86
2022/01/29 17:44:57;;;;;;;2.00;1.80;;;;;;;;;;6274424;22;20191;-86
2022/01/29 17:47:28;;;;;;;2.50;1.70;;;;;;;;;;6273707;22;20156;-86
2022/01/29 17:49:58;;;;;;;1.40;1.30;;;;;;;;;;6274231;22;20178;-87
2022/01/29 17:52:29;;;;;;;1.00;1.00;;;;;;;;;;6274289;22;20219;-86
2022/01/29 17:54:59;;;;;;;0.93;0.90;;;;;;;;;;6275192;22;20164;-85
2022/01/29 17:57:29;;;;;;;1.03;1.03;;;;;;;;;;6273106;22;20179;-86
2022/01/29 18:00:02;;;;;;;1.23;1.13;;;;;;;;;;6274745;22;20203;-86
2022/01/29 18:02:33;;;;;;;1.50;1.40;;;;;;;;;;6275636;22;20153;-86
2022/01/29 18:05:06;;;;;;;1.60;1.50;;;;;;;;;;6273865;22;20207;-88
2022/01/29 18:07:34;;;;;;;1.03;1.03;;;;;;;;;;6273688;22;20179;-88
2022/01/29 18:10:02;;;;;;;1.10;1.10;;;;;;;;;;6274613;22;20171;-88
2022/01/29 18:12:32;;;;;;;1.30;1.20;;;;;;;;;;6275164;22;20274;-88
2022/01/29 18:15:17;;;;;;;1.90;1.40;;;;;;;;;;6274249;22;20171;-87
2022/01/29 18:17:56;;;;;;;1.37;1.27;;;;;;;;;;6274232;22;20168;-87
2022/01/29 18:23:07;;;;;;;1.50;1.40;;;;;;;;;;6269831;22;20233;-87
2022/01/29 18:25:55;;;;;;;1.40;1.27;;;;;;;;;;6274566;22;20195;-89
2022/01/29 18:28:37;;;;;;;1.60;1.50;;;;;;;;;;6274264;22;20171;-89
2022/01/29 18:31:25;;;;;;;1.57;1.47;;;;;;;;;;6274801;22;20168;-90
2022/01/29 18:34:06;;;;;;;3.23;2.00;;;;;;;;;;6275705;22;20176;-89
2022/01/29 18:36:38;;;;;;;1.20;1.03;;;;;;;;;;6273642;22;20194;-89
2022/01/29 18:39:24;;;;;;;;;;;;;;;;;;;;;
2022/01/29 18:41:58;;;;;;;1.00;1.00;;;;;;;;;;6242700;22;20231;-90
2022/01/29 18:44:41;;;;;;;1.60;1.50;;;;;;;;;;6276810;22;20192;-90
2022/01/29 18:47:19;;;;;;;1.40;1.30;;;;;;;;;;6272036;22;20257;-92
2022/01/29 18:49:59;;;;;;;1.37;1.10;;;;;;;;;;6275972;22;20247;-87
2022/01/29 18:52:32;;;;;;;1.00;1.00;;;;;;;;;;6274480;22;20210;-88
2022/01/29 18:55:00;;;;;;;0.80;0.80;;;;;;;;;;6273548;22;20186;-87
2022/01/29 18:57:29;;;;;;;0.90;0.90;;;;;;;;;;6272695;22;20180;-86
2022/01/29 19:00:03;;;;;;;1.17;1.13;;;;;;;;;;6273319;22;20172;-88
2022/01/29 19:02:34;;;;;;;1.77;0.83;;;;;;;;;;6277626;22;20171;-88
2022/01/29 19:07:42;;;;;;;2.90;0.90;;;;;;;;;;6215776;23;20176;-87
2022/01/29 19:10:17;;;;;;;0.60;0.60;;;;;;;;;;6217511;23;20173;-87
2022/01/29 19:12:50;;;;;;;0.60;0.60;;;;;;;;;;6220120;23;20172;-87
2022/01/29 19:15:22;;;;;;;0.60;0.60;;;;;;;;;;6237548;23;20233;-87
2022/01/29 19:18:04;;;;;;;0.80;0.73;;;;;;;;;;6218127;23;20519;-87
2022/01/29 19:20:48;;;;;;;1.47;0.80;;;;;;;;;;6217909;23;20169;-87
2022/01/29 19:23:32;;;;;;;0.90;0.90;;;;;;;;;;6223804;23;20184;-87
2022/01/29 19:26:02;;;;;;;0.80;0.70;;;;;;;;;;6222540;23;20197;-87
2022/01/29 19:28:32;;;;;;;0.90;0.90;;;;;;;;;;6216682;23;20174;-87
2022/01/29 19:31:02;;;;;;;1.30;1.20;;;;;;;;;;6217460;23;20188;-87
2022/01/29 19:33:37;;;;;;;2.03;1.70;;;;;;;;;;6218315;23;20168;-87
2022/01/29 19:36:11;;;;;;;2.97;2.00;;;;;;;;;;6218110;23;20196;-87
2022/01/29 19:38:43;;;;;;;1.77;0.90;;;;;;;;;;6220759;23;20228;-87
2022/01/29 19:41:21;;;;;;;0.93;0.93;;;;;;;;;;6220415;23;20197;-86
2022/01/29 19:43:53;;;;;;;1.40;1.20;;;;;;;;;;6218785;23;20165;-87
2022/01/29 19:46:45;;;;;;;1.10;1.10;;;;;;;;;;6217397;23;20193;-89
2022/01/29 19:55:52;;;;;;;1.73;1.20;;;;;;;;;;6036503;23;20208;-88
2022/01/29 20:01:11;;;;;;;2.17;1.63;;;;;;;;;;6041366;23;20177;-86
2022/01/29 20:03:41;;;;;;;1.30;1.20;;;;;;;;;;6157989;23;20173;-86
2022/01/29 20:06:16;;;;;;;1.20;1.20;;;;;;;;;;6153539;23;20194;-87
2022/01/29 20:08:43;;;;;;;1.40;1.30;;;;;;;;;;6153199;23;20162;-88
2022/01/29 21:25:20;;;;;;;1.30;1.20;;;;;;;;;;6248713;22;20199;-83
2022/01/29 21:27:49;;;;;;;1.37;1.30;;;;;;;;;;6295771;22;20156;-88
2022/01/29 21:30:17;;;;;;;1.33;1.23;;;;;;;;;;6301600;22;20182;-86
2022/01/29 21:32:44;;;;;;;1.17;1.17;;;;;;;;;;6301194;22;20173;-85
2022/01/29 21:35:12;;;;;;;1.17;1.00;;;;;;;;;;6300935;22;20180;-85
2022/01/29 21:37:39;;;;;;;1.67;1.57;;;;;;;;;;6286494;22;20198;-85
2022/01/29 21:40:09;;;;;;;1.30;1.20;;;;;;;;;;6283640;22;20176;-84
2022/01/29 21:42:41;;;;;;;1.80;1.20;;;;;;;;;;6284564;22;20183;-82